createdAt,value
2022-08-16T00:00:38.591Z,23.88
2022-08-16T00:03:13.161Z,23.91
2022-08-16T00:05:48.065Z,23.83
2022-08-16T00:08:35.789Z,23.77
2022-08-16T00:11:08.080Z,23.83
2022-08-16T00:13:53.309Z,23.74
2022-08-16T00:17:06.038Z,23.63
2022-08-16T00:19:18.312Z,23.72
2022-08-16T00:21:53.316Z,23.60
2022-08-16T00:24:32.660Z,23.61
2022-08-16T00:27:03.455Z,23.65
2022-08-16T00:29:33.638Z,23.65
2022-08-16T00:32:06.499Z,23.71
2022-08-16T00:34:43.465Z,23.64
2022-08-16T00:37:17.099Z,23.47
2022-08-16T00:39:58.028Z,23.53
2022-08-16T00:42:32.031Z,23.54
2022-08-16T00:45:08.416Z,23.45
2022-08-16T00:47:48.918Z,23.51
2022-08-16T00:50:36.311Z,23.53
2022-08-16T00:53:07.935Z,23.41
2022-08-16T00:55:40.733Z,23.45
2022-08-16T00:58:13.033Z,23.37
2022-08-16T01:00:54.048Z,23.32
2022-08-16T01:03:30.126Z,23.34
2022-08-16T01:06:40.850Z,23.34
2022-08-16T01:08:55.725Z,23.31
2022-08-16T01:11:30.024Z,23.25
2022-08-16T01:14:04.887Z,23.28
2022-08-16T01:16:35.166Z,23.19
2022-08-16T01:19:11.399Z,23.19
2022-08-16T01:21:51.678Z,23.16
2022-08-16T01:24:53.722Z,23.18
2022-08-16T01:27:23.430Z,23.11
2022-08-16T01:30:01.890Z,23.06
2022-08-16T01:32:38.780Z,22.99
2022-08-16T01:35:17.669Z,23.05
2022-08-16T01:37:53.966Z,23.01
2022-08-16T01:40:31.607Z,23.06
2022-08-16T01:43:01.065Z,23.05
2022-08-16T01:45:40.706Z,23.03
2022-08-16T01:48:19.620Z,22.93
2022-08-16T01:51:09.788Z,22.90
2022-08-16T01:53:43.896Z,22.84
2022-08-16T01:56:24.233Z,22.89
2022-08-16T01:58:56.051Z,22.79
2022-08-16T02:01:28.095Z,22.71
2022-08-16T02:04:10.195Z,22.60
2022-08-16T02:06:45.928Z,22.53
2022-08-16T02:09:20.977Z,22.50
2022-08-16T02:11:56.683Z,22.45
2022-08-16T02:14:31.553Z,22.48
2022-08-16T02:17:04.737Z,22.38
2022-08-16T02:19:58.688Z,22.24
2022-08-16T02:22:33.542Z,22.32
2022-08-16T02:25:09.934Z,22.34
2022-08-16T02:27:43.634Z,22.33
2022-08-16T02:30:36.778Z,22.40
2022-08-16T02:33:11.998Z,22.28
2022-08-16T02:35:49.966Z,22.29
2022-08-16T02:38:26.699Z,22.25
2022-08-16T02:40:57.634Z,22.22
2022-08-16T02:43:33.434Z,22.23
2022-08-16T02:46:08.881Z,22.26
2022-08-16T02:48:39.842Z,22.25
2022-08-16T02:51:23.462Z,22.28
2022-08-16T02:53:53.565Z,22.21
2022-08-16T02:56:25.628Z,22.26
2022-08-16T02:59:11.477Z,22.33
2022-08-16T03:01:44.383Z,22.16
2022-08-16T03:04:28.769Z,22.22
2022-08-16T03:07:11.801Z,22.22
2022-08-16T03:09:44.927Z,22.05
2022-08-16T03:12:19.403Z,22.17
2022-08-16T03:14:52.496Z,22.26
2022-08-16T03:17:24.698Z,22.23
2022-08-16T03:20:05.601Z,22.33
2022-08-16T03:22:40.327Z,22.32
2022-08-16T03:25:18.129Z,22.38
2022-08-16T03:27:59.931Z,22.20
2022-08-16T03:30:34.378Z,22.28
2022-08-16T03:33:07.452Z,22.23
2022-08-16T03:35:45.773Z,22.26
2022-08-16T03:38:34.536Z,22.30
2022-08-16T03:41:17.099Z,22.28
2022-08-16T03:43:59.748Z,22.31
2022-08-16T03:46:47.312Z,22.30
2022-08-16T03:49:37.423Z,22.36
2022-08-16T03:52:13.579Z,22.32
2022-08-16T03:54:57.760Z,22.34
2022-08-16T03:57:36.263Z,22.42
2022-08-16T04:00:35.275Z,22.43
2022-08-16T04:03:14.896Z,22.57
2022-08-16T04:05:51.459Z,22.54
2022-08-16T04:08:27.833Z,22.58
2022-08-16T04:11:04.944Z,22.65
2022-08-16T04:14:00.708Z,22.72
2022-08-16T04:16:38.084Z,22.81
2022-08-16T04:19:51.639Z,23.04
2022-08-16T04:22:48.985Z,23.06
2022-08-16T04:25:23.292Z,23.13
2022-08-16T04:28:51.710Z,23.31
2022-08-16T04:31:01.371Z,23.58
2022-08-16T04:33:50.936Z,23.74
2022-08-16T04:36:32.680Z,23.78
2022-08-16T04:39:03.326Z,23.77
2022-08-16T04:41:37.614Z,23.92
2022-08-16T04:44:52.819Z,24.17
2022-08-16T04:47:21.603Z,24.20
2022-08-16T04:49:59.269Z,24.35
2022-08-16T04:52:36.662Z,24.51
2022-08-16T04:55:16.978Z,24.57
2022-08-16T04:57:53.369Z,25.31
2022-08-16T05:00:34.002Z,24.86
2022-08-16T05:03:16.031Z,24.74
2022-08-16T05:06:07.025Z,24.85
2022-08-16T05:08:47.422Z,24.97
2022-08-16T05:11:34.731Z,25.11
2022-08-16T05:14:07.719Z,25.02
2022-08-16T05:16:46.114Z,25.00
2022-08-16T05:19:19.312Z,25.04
2022-08-16T05:22:19.178Z,25.07
2022-08-16T05:24:56.824Z,25.16
2022-08-16T05:27:29.481Z,25.22
2022-08-16T05:30:35.662Z,25.30
2022-08-16T05:33:27.306Z,25.25
2022-08-16T05:36:03.640Z,25.15
2022-08-16T05:38:41.807Z,25.24
2022-08-16T05:41:22.020Z,25.35
2022-08-16T05:43:59.203Z,25.27
2022-08-16T05:46:45.104Z,25.40
2022-08-16T05:49:22.432Z,25.28
2022-08-16T05:52:00.286Z,25.32
2022-08-16T05:54:32.210Z,25.38
2022-08-16T05:57:06.904Z,25.62
2022-08-16T05:59:45.626Z,25.67
2022-08-16T06:02:17.781Z,25.75
2022-08-16T06:04:49.487Z,25.76
2022-08-16T06:07:24.991Z,25.90
2022-08-16T06:10:32.507Z,25.84
2022-08-16T06:13:07.421Z,26.06
2022-08-16T06:15:41.527Z,26.11
2022-08-16T06:18:12.377Z,26.23
2022-08-16T06:20:55.490Z,26.31
2022-08-16T06:23:28.209Z,26.18
2022-08-16T06:26:07.764Z,26.16
2022-08-16T06:28:44.129Z,26.42
2022-08-16T06:31:26.046Z,26.57
2022-08-16T06:33:59.158Z,26.72
2022-08-16T06:36:33.461Z,26.83
2022-08-16T06:39:25.671Z,27.19
2022-08-16T06:42:01.207Z,27.33
2022-08-16T06:44:53.067Z,27.96
2022-08-16T06:47:53.116Z,29.00
2022-08-16T06:50:29.463Z,29.32
2022-08-16T06:53:09.019Z,29.96
2022-08-16T06:55:54.543Z,30.78
2022-08-16T06:58:31.716Z,31.02
2022-08-16T07:01:15.007Z,31.62
2022-08-16T07:03:55.618Z,31.21
2022-08-16T07:06:32.816Z,31.66
2022-08-16T07:09:09.767Z,32.10
2022-08-16T07:11:51.767Z,32.19
2022-08-16T07:14:35.390Z,31.78
2022-08-16T07:17:11.286Z,31.26
2022-08-16T07:20:03.499Z,31.50
2022-08-16T07:22:59.428Z,31.79
2022-08-16T07:25:48.951Z,31.10
2022-08-16T07:28:24.244Z,30.70
2022-08-16T07:31:00.270Z,30.59
2022-08-16T07:33:52.205Z,30.52
2022-08-16T07:36:27.096Z,31.11
2022-08-16T07:39:01.195Z,31.14
2022-08-16T07:41:37.420Z,32.06
2022-08-16T07:44:16.428Z,32.78
2022-08-16T07:46:55.448Z,32.70
2022-08-16T07:49:32.447Z,32.56
2022-08-16T07:52:18.901Z,32.25
2022-08-16T07:54:53.434Z,31.99
2022-08-16T07:57:26.354Z,31.87
2022-08-16T07:59:57.522Z,32.45
2022-08-16T08:02:28.900Z,31.88
2022-08-16T08:05:05.523Z,31.92
2022-08-16T08:07:36.814Z,32.72
2022-08-16T08:10:11.068Z,32.50
2022-08-16T08:12:43.859Z,32.56
2022-08-16T08:15:15.516Z,33.02
2022-08-16T08:17:55.366Z,33.25
2022-08-16T08:20:36.058Z,33.90
2022-08-16T08:23:12.306Z,34.48
2022-08-16T08:25:53.947Z,33.92
2022-08-16T08:28:33.812Z,33.71
2022-08-16T08:31:11.718Z,33.57
2022-08-16T08:33:51.603Z,33.36
2022-08-16T08:36:32.940Z,33.49
2022-08-16T08:39:12.905Z,33.00
2022-08-16T08:41:46.509Z,33.02
2022-08-16T08:44:29.835Z,33.34
2022-08-16T08:47:09.344Z,33.38
2022-08-16T08:49:46.323Z,33.25
2022-08-16T08:52:34.404Z,33.32
2022-08-16T08:55:17.001Z,34.16
2022-08-16T08:57:48.539Z,34.95
2022-08-16T09:00:34.423Z,34.49
2022-08-16T09:03:25.314Z,34.99
2022-08-16T09:05:58.368Z,34.59
2022-08-16T09:08:31.641Z,34.88
2022-08-16T09:11:08.969Z,34.47
2022-08-16T09:13:47.100Z,34.71
2022-08-16T09:17:03.492Z,35.02
2022-08-16T09:19:10.308Z,35.69
2022-08-16T09:21:41.143Z,35.96
2022-08-16T09:24:13.228Z,36.17
2022-08-16T09:27:05.944Z,36.40
2022-08-16T09:29:45.742Z,35.71
2022-08-16T09:32:25.617Z,34.78
2022-08-16T09:35:01.825Z,35.57
2022-08-16T09:37:36.820Z,36.14
2022-08-16T09:40:33.080Z,35.58
2022-08-16T09:43:46.422Z,35.75
2022-08-16T09:46:45.196Z,36.15
2022-08-16T09:48:59.457Z,36.59
2022-08-16T09:51:36.597Z,37.15
2022-08-16T09:54:09.657Z,36.23
2022-08-16T09:56:52.835Z,36.88
2022-08-16T09:59:25.485Z,36.91
2022-08-16T10:02:01.119Z,37.38
2022-08-16T10:04:54.313Z,37.83
2022-08-16T10:07:25.044Z,36.34
2022-08-16T10:09:56.490Z,35.95
2022-08-16T10:12:55.742Z,35.41
2022-08-16T10:15:30.047Z,36.48
2022-08-16T10:18:02.500Z,37.88
2022-08-16T10:20:51.161Z,37.94
2022-08-16T10:23:22.996Z,38.37
2022-08-16T10:27:20.232Z,37.77
2022-08-16T10:28:52.350Z,37.99
2022-08-16T10:31:44.130Z,37.14
2022-08-16T10:34:31.349Z,38.12
2022-08-16T10:37:03.501Z,38.14
2022-08-16T10:39:41.792Z,37.73
2022-08-16T10:42:15.470Z,36.87
2022-08-16T10:44:53.846Z,37.21
2022-08-16T10:47:25.183Z,36.96
2022-08-16T10:49:56.079Z,36.92
2022-08-16T10:58:11.731Z,38.65
2022-08-16T11:00:46.229Z,38.86
2022-08-16T11:06:15.120Z,37.51
2022-08-16T11:09:20.855Z,36.80
2022-08-16T11:14:33.522Z,38.88
2022-08-16T11:17:11.410Z,38.94
2022-08-16T11:22:42.187Z,39.05
2022-08-16T11:29:12.195Z,38.93
2022-08-16T11:31:09.475Z,38.32
2022-08-16T11:33:53.346Z,37.46
2022-08-16T11:36:25.073Z,37.88
2022-08-16T11:39:05.634Z,38.21
2022-08-16T11:41:43.567Z,38.45
2022-08-16T11:44:14.099Z,37.29
2022-08-16T11:46:50.131Z,38.02
2022-08-16T11:49:25.940Z,38.82
2022-08-16T11:51:56.438Z,39.52
2022-08-16T11:54:34.294Z,39.80
2022-08-16T11:57:09.150Z,39.80
2022-08-16T11:59:41.307Z,39.86
2022-08-16T12:02:31.907Z,40.46
2022-08-16T12:05:09.759Z,40.42
2022-08-16T12:07:42.632Z,38.31
2022-08-16T12:10:21.293Z,36.07
2022-08-16T12:12:57.867Z,34.57
2022-08-16T12:15:29.266Z,33.38
2022-08-16T12:18:03.460Z,33.12
2022-08-16T12:20:45.802Z,34.87
2022-08-16T12:23:15.734Z,35.24
2022-08-16T12:25:48.175Z,34.77
2022-08-16T12:28:36.980Z,34.39
2022-08-16T12:31:19.207Z,34.48
2022-08-16T12:33:57.689Z,34.45
2022-08-16T12:36:30.148Z,34.36
2022-08-16T12:39:03.735Z,34.06
2022-08-16T12:41:37.954Z,33.36
2022-08-16T12:44:26.811Z,33.39
2022-08-16T12:47:21.128Z,33.04
2022-08-16T12:49:54.314Z,32.17
2022-08-16T12:52:38.840Z,33.06
2022-08-16T12:55:16.989Z,32.30
2022-08-16T12:57:58.206Z,32.13
2022-08-16T13:00:33.291Z,31.90
2022-08-16T13:03:07.877Z,32.19
2022-08-16T13:05:47.935Z,32.33
2022-08-16T13:08:30.988Z,32.39
2022-08-16T13:11:15.361Z,32.27
2022-08-16T13:14:01.119Z,32.38
2022-08-16T13:16:37.717Z,32.34
2022-08-16T13:19:10.592Z,32.21
2022-08-16T13:21:50.698Z,31.86
2022-08-16T13:24:35.431Z,32.10
2022-08-16T13:27:12.988Z,32.37
2022-08-16T13:29:57.366Z,32.54
2022-08-16T13:32:40.212Z,33.16
2022-08-16T13:35:15.868Z,33.27
2022-08-16T13:37:50.831Z,33.23
2022-08-16T13:40:26.430Z,32.85
2022-08-16T13:43:01.566Z,32.71
2022-08-16T13:45:44.919Z,32.56
2022-08-16T13:48:21.891Z,32.43
2022-08-16T13:51:07.705Z,32.47
2022-08-16T13:53:38.287Z,32.31
2022-08-16T13:56:24.757Z,32.48
2022-08-16T13:58:55.713Z,32.53
2022-08-16T14:01:27.768Z,32.42
2022-08-16T14:04:01.394Z,32.46
2022-08-16T14:06:34.497Z,32.62
2022-08-16T14:09:06.560Z,32.43
2022-08-16T14:11:38.454Z,32.05
2022-08-16T14:14:11.248Z,31.79
2022-08-16T14:16:41.691Z,31.66
2022-08-16T14:19:22.405Z,31.58
2022-08-16T14:22:14.610Z,31.56
2022-08-16T14:24:50.314Z,31.47
2022-08-16T14:27:31.763Z,31.53
2022-08-16T14:30:05.668Z,31.33
2022-08-16T14:32:35.974Z,31.20
2022-08-16T14:35:14.103Z,30.99
2022-08-16T14:37:52.622Z,30.91
2022-08-16T14:40:29.142Z,30.89
2022-08-16T14:43:07.040Z,31.13
2022-08-16T14:45:37.510Z,31.10
2022-08-16T14:48:09.615Z,30.92
2022-08-16T14:50:41.328Z,30.86
2022-08-16T14:53:12.289Z,30.77
2022-08-16T14:55:52.224Z,30.75
2022-08-16T14:58:35.080Z,30.42
2022-08-16T15:01:10.141Z,30.21
2022-08-16T15:03:44.917Z,30.21
2022-08-16T15:06:16.450Z,30.15
2022-08-16T15:08:46.863Z,30.14
2022-08-16T15:11:17.791Z,30.06
2022-08-16T15:13:48.957Z,29.91
2022-08-16T15:16:29.022Z,29.72
2022-08-16T15:19:01.666Z,29.71
2022-08-16T15:21:42.492Z,29.80
2022-08-16T15:24:16.630Z,29.74
2022-08-16T15:26:55.363Z,29.81
2022-08-16T15:29:27.173Z,29.91
2022-08-16T15:32:01.415Z,29.88
2022-08-16T15:34:32.996Z,29.67
2022-08-16T15:37:04.160Z,29.67
2022-08-16T15:39:39.716Z,29.61
2022-08-16T15:42:15.624Z,29.44
2022-08-16T15:45:00.144Z,29.32
2022-08-16T15:47:35.336Z,29.14
2022-08-16T15:50:14.890Z,29.20
2022-08-16T15:52:47.076Z,28.92
2022-08-16T15:55:29.710Z,28.88
2022-08-16T15:58:35.032Z,28.77
2022-08-16T16:00:59.312Z,28.72
2022-08-16T16:03:29.310Z,28.60
2022-08-16T16:06:05.999Z,28.54
2022-08-16T16:08:36.309Z,28.45
2022-08-16T16:11:12.034Z,28.35
2022-08-16T16:13:44.220Z,28.32
2022-08-16T16:16:19.793Z,28.27
2022-08-16T16:18:52.314Z,28.20
2022-08-16T16:21:23.145Z,28.10
2022-08-16T16:23:57.740Z,27.98
2022-08-16T16:26:31.944Z,27.94
2022-08-16T16:29:14.537Z,27.98
2022-08-16T16:31:51.376Z,27.85
2022-08-16T16:34:32.122Z,27.71
2022-08-16T16:37:05.262Z,27.68
2022-08-16T16:39:45.728Z,27.68
2022-08-16T16:42:29.127Z,27.58
2022-08-16T16:45:03.165Z,27.47
2022-08-16T16:47:41.981Z,27.45
2022-08-16T16:50:16.344Z,27.35
2022-08-16T16:52:48.436Z,27.26
2022-08-16T16:55:18.638Z,27.24
2022-08-16T16:58:17.796Z,27.15
2022-08-16T17:01:02.703Z,27.12
2022-08-16T17:03:35.604Z,27.04
2022-08-16T17:06:15.052Z,27.04
2022-08-16T17:08:49.972Z,27.01
2022-08-16T17:11:23.633Z,26.94
2022-08-16T17:13:54.508Z,26.97
2022-08-16T17:16:32.963Z,26.97
2022-08-16T17:19:16.953Z,27.03
2022-08-16T17:21:51.707Z,26.89
2022-08-16T17:24:31.256Z,26.84
2022-08-16T17:27:09.598Z,26.85
2022-08-16T17:29:42.821Z,26.83
2022-08-16T17:32:34.226Z,26.82
2022-08-16T17:35:18.346Z,26.85
2022-08-16T17:37:50.789Z,26.78
2022-08-16T17:40:45.784Z,26.77
2022-08-16T17:43:16.582Z,26.73
2022-08-16T17:45:46.100Z,26.65
2022-08-16T17:48:18.080Z,26.68
2022-08-16T17:50:54.763Z,26.95
2022-08-16T17:53:24.954Z,27.00
2022-08-16T17:55:56.254Z,27.01
2022-08-16T17:58:27.964Z,26.97
2022-08-16T18:01:00.412Z,26.97
2022-08-16T18:04:03.018Z,26.95
2022-08-16T18:06:29.182Z,26.94
2022-08-16T18:09:09.279Z,27.00
2022-08-16T18:11:42.989Z,26.84
2022-08-16T18:14:13.334Z,26.86
2022-08-16T18:16:43.434Z,26.89
2022-08-16T18:19:13.527Z,26.92
2022-08-16T18:22:03.438Z,26.92
2022-08-16T18:24:33.504Z,26.83
2022-08-16T18:27:26.512Z,26.77
2022-08-16T18:29:56.169Z,26.87
2022-08-16T18:32:25.580Z,27.47
2022-08-16T18:34:56.067Z,26.83
2022-08-16T18:37:28.059Z,26.77
2022-08-16T18:39:58.378Z,26.69
2022-08-16T18:42:30.103Z,26.69
2022-08-16T18:44:59.278Z,26.64
2022-08-16T18:47:30.489Z,26.65
2022-08-16T18:50:00.729Z,26.60
2022-08-16T18:52:32.141Z,26.62
2022-08-16T18:55:33.485Z,26.81
2022-08-16T18:58:04.425Z,26.61
2022-08-16T19:00:47.137Z,26.58
2022-08-16T19:03:29.759Z,26.54
2022-08-16T19:06:03.812Z,26.57
2022-08-16T19:09:07.438Z,26.69
2022-08-16T19:11:38.562Z,26.53
2022-08-16T19:14:10.902Z,27.12
2022-08-16T19:16:43.382Z,26.62
2022-08-16T19:19:13.982Z,26.44
2022-08-16T19:21:44.667Z,26.42
2022-08-16T19:24:18.129Z,26.49
2022-08-16T19:26:51.578Z,26.52
2022-08-16T19:29:24.094Z,26.42
2022-08-16T19:31:54.485Z,26.37
2022-08-16T19:34:24.551Z,26.38
2022-08-16T19:36:56.555Z,26.41
2022-08-16T19:39:32.412Z,26.40
2022-08-16T19:42:13.552Z,26.54
2022-08-16T19:44:44.536Z,26.45
2022-08-16T19:47:14.590Z,26.38
2022-08-16T19:49:44.979Z,26.30
2022-08-16T19:52:18.514Z,26.37
2022-08-16T19:54:49.740Z,26.36
2022-08-16T19:57:24.029Z,26.35
2022-08-16T19:59:58.645Z,26.28
2022-08-16T20:02:36.074Z,26.29
2022-08-16T20:05:07.222Z,26.26
2022-08-16T20:07:38.375Z,26.29
2022-08-16T20:10:17.016Z,26.23
2022-08-16T20:12:58.391Z,26.18
2022-08-16T20:15:40.950Z,26.10
2022-08-16T20:18:21.301Z,26.06
2022-08-16T20:20:57.141Z,26.04
2022-08-16T20:23:27.190Z,25.95
2022-08-16T20:25:56.855Z,25.89
2022-08-16T20:28:53.804Z,26.05
2022-08-16T20:31:25.594Z,25.90
2022-08-16T20:34:08.441Z,26.02
2022-08-16T20:36:38.069Z,25.72
2022-08-16T20:39:08.027Z,25.65
2022-08-16T20:41:41.835Z,25.70
2022-08-16T20:44:14.210Z,25.72
2022-08-16T20:46:46.039Z,25.66
2022-08-16T20:49:15.588Z,25.54
2022-08-16T20:51:50.825Z,25.41
2022-08-16T20:54:23.535Z,25.39
2022-08-16T20:56:54.378Z,25.38
2022-08-16T20:59:25.848Z,25.38
2022-08-16T21:01:55.793Z,25.28
2022-08-16T21:04:27.919Z,25.30
2022-08-16T21:07:02.779Z,25.29
2022-08-16T21:09:34.189Z,25.29
2022-08-16T21:12:07.856Z,25.23
2022-08-16T21:14:45.179Z,25.24
2022-08-16T21:17:53.572Z,25.27
2022-08-16T21:20:37.343Z,25.15
2022-08-16T21:23:11.414Z,25.13
2022-08-16T21:26:11.203Z,25.24
2022-08-16T21:28:55.931Z,24.97
2022-08-16T21:31:27.310Z,25.01
2022-08-16T21:34:31.464Z,24.93
2022-08-16T21:37:09.687Z,24.89
2022-08-16T21:39:40.176Z,24.85
2022-08-16T21:42:15.082Z,24.86
2022-08-16T21:44:45.909Z,24.83
2022-08-16T21:47:19.746Z,24.87
2022-08-16T21:49:55.682Z,24.67
2022-08-16T21:52:26.858Z,24.69
2022-08-16T21:54:59.899Z,24.73
2022-08-16T22:00:23.699Z,24.75
2022-08-16T22:03:01.993Z,24.67
2022-08-16T22:05:45.897Z,24.57
2022-08-16T22:08:47.879Z,24.52
2022-08-16T22:11:23.486Z,24.47
2022-08-16T22:14:00.106Z,24.50
2022-08-16T22:16:40.287Z,24.46
2022-08-16T22:19:57.397Z,24.39
2022-08-16T22:22:26.738Z,24.21
2022-08-16T22:25:06.365Z,24.21
2022-08-16T22:27:36.901Z,24.22
2022-08-16T22:30:22.902Z,24.18
2022-08-16T22:33:09.695Z,24.14
2022-08-16T22:35:45.480Z,24.23
2022-08-16T22:41:04.138Z,24.13
2022-08-16T22:43:37.385Z,24.06
2022-08-16T22:46:10.591Z,24.03
2022-08-16T22:48:46.563Z,24.01
2022-08-16T22:51:17.503Z,24.03
2022-08-16T22:53:46.873Z,24.00
2022-08-16T22:56:28.670Z,24.00
2022-08-16T22:58:58.930Z,23.94
2022-08-16T23:01:28.332Z,23.89
2022-08-16T23:04:09.292Z,23.89
2022-08-16T23:09:28.118Z,23.98
2022-08-16T23:11:58.871Z,23.86
2022-08-16T23:14:31.485Z,23.82
2022-08-16T23:17:10.658Z,23.80
2022-08-16T23:19:40.851Z,23.82
2022-08-16T23:22:11.613Z,23.81
2022-08-16T23:24:55.053Z,23.82
2022-08-16T23:27:31.765Z,23.71
2022-08-16T23:30:08.888Z,23.79
2022-08-16T23:32:45.589Z,23.77
2022-08-16T23:35:16.801Z,23.68
2022-08-16T23:37:49.113Z,23.79
2022-08-16T23:40:19.452Z,23.69
2022-08-16T23:43:01.755Z,23.82
2022-08-16T23:45:38.898Z,23.75
2022-08-16T23:48:08.979Z,23.65
2022-08-16T23:50:41.179Z,23.69
2022-08-16T23:53:13.845Z,23.75
2022-08-16T23:55:46.220Z,23.73
2022-08-16T23:58:18.021Z,23.66
